Cordova, Illinois
Current Conditions -  °F | °C
As of 3:35 AM on Friday 24 Oct 2014 (Local Time) from KCWI Reporting Station
Overcast Overcast  
Wind Chill: 40°   Ceiling: 200
Heat Index: 43°   Visibility: 0.25mi
Dew Point: 39°   Wind: 5mph
Humidity: 87%   Direction: 310°NW
Pressure: 30.08"   Gusts: NA
Location:  41.68°N, 90.32°W
Report Text: KCWI 240835Z 31004KT 1/4SM VV002 06/04 A3008 RMK AO1
Loading
Personal Weather Stations






























Interactive Weather Map
Tropical Storm Tracking
New forecast layout! Learn more

10-Day Weather Forecast

Advertisements
Track Severe Weather on mobile